Terminal Aerodrome Forecast
Issued by NWS

Home | Current Version | Previous Version | Graphics & Text | Print | Product List | Glossary On
Versions: 1 2 3 4 5 6 7 8 9 10 11 12 13 14 15 16
000
FTUS43 KIWX 030500
TAFSBN
TAF
KSBN 030531Z 0306/0406 18006KT P6SM OVC100
     FM031200 13012KT 3SM -SNPL OVC035
     FM031400 15012KT 1SM -SNPL BR OVC015 WS020/20040KT
     FM031600 17013G20KT 3/4SM -FZRA BR OVC006 WS020/23050KT
     FM032000 20016G23KT 1SM -RA BR OVC004
     FM040100 27013G18KT 5SM -SN BR OVC012=

USA.gov is the U.S. government's official web portal to all federal, state and local government web resources and services.